Aeroporto :
LOGIN :

Iscrizione | Disclaimer

   EN    FR    IT 

 










Sommario :    VFR   VFR Marginale   IFR   IFR Intensivo   IFR Molto Intensivo
Visibilità : 
Base nubi : 
>= 8 km
>= 3000ft
5 / 8 km
1000 / 3000 ft
1500m / 5 km
500 / 1000 ft
800 / 1500m
200 / 500 ft
< 800m
< 200 ft
Simboli :   Temporali  Nebbia  Neve Forte  Precipitazioni Forti  Vento > 20 kt
SIGMETs :   Varie  Temporali  Ghiacco  Turbolenza  Onda orograficha  Ceneri Vulcaniche






- Altitudine del aeroporto : 574 ft
- Codice IATA : TEQ


LTBU - Corlu

ULTIMO METAR :
  • 021150Z 19009KT 160V220 9999 FEW025CB SCT035 20/13 Q1007 RETS RMK RWY22 /////KT

METARs OBSOLETI :
  • 021145Z 19009KT 9999 FEW025CB SCT035 19/13 Q1008 RETS RMK RWY22 /////KT
  • 021120Z 20009KT 170V230 9999 TS FEW025CB BKN033 20/14 Q1008 RMK RWY22 12006KT 090V150
  • 021113Z 19008KT 130V230 9999 TS FEW025CB BKN033 20/14 Q1008 RMK RWY22 13006KT
  • 021050Z 15009KT 9999 BKN033 17/14 Q1008 RESHRA
  • 021036Z 16010KT 9999 -SHRA FEW030CB BKN040 19/12 Q1008 RMK RWY22 16009KT 120V210
  • 021020Z 14008KT 100V180 9999 BKN033 20/12 Q1008 RMK RWY22 14008KT 090V180
  • 020950Z 13008KT 080V170 9999 BKN040 20/12 Q1008 RMK RWY22 15008KT 130V210
  • 020920Z VRB03KT 9999 BKN040 21/12 Q1008 RMK RWY22 VRB03KT

TAF TAF LTBU
Valido dal 02 a 12 ore il 03 a 12 ore UTC


021040Z 0212/0312 VRB02KT 9999 BKN040 BKN100
TEMPO 0212/0216 24015KT 4000 -TSRA FEW018CB BKN025
BECMG 0216/0219 FEW040 SCT100
BECMG 0222/0302 BKN035 BKN080
TEMPO 0302/0306 4000 -TSRA FEW018CB BKN025
BECMG 0308/0311 SCT035 SCT100



MetMap, La meteo Aeronautica in un colpo d'occhio ! - Copyright ORBIFLY Dicembre 2007 - Disclaimer

ORBIFLY MET'MAP TEAM :

Programmazione e sviluppo : Alexandra Zaïnal
Concezione : Baudouin d'Aumeries
Aiuto per la programmazione : Marc-Olivier Méhu
Supporto tecnico e logistico : Manuel Goepfert
Aiuto per la traduzione : Arnaldo La Scala

Contatto : metmap@orbifly.com




FONTI E CREDITI :

   NOAA